Time;durP1;ratioP1;P1;durP2;ratioP2;P2;SDS_P1;SDS_P2;PMS_P1;PMS_P2;Temp;Humidity;BMP_temperature;BMP_pressure;BME280_temperature;BME280_humidity;BME280_pressure;Samples;Min_cycle;Max_cycle;Signal;HPM_P1;HPM_P2
2023/05/17 00:00:05;;;;;;;5.55;1.92;;;9.90;99.90;;;;;;5102138;28;20023;-60
2023/05/17 00:02:31;;;;;;;3.85;1.83;;;9.90;99.90;;;;;;5099632;28;20023;-60
2023/05/17 00:04:56;;;;;;;5.28;1.40;;;9.80;99.90;;;;;;5099159;28;20016;-55
2023/05/17 00:07:22;;;;;;;5.93;1.73;;;9.70;99.90;;;;;;5100158;28;20023;-58
2023/05/17 00:09:47;;;;;;;6.15;2.20;;;9.70;99.90;;;;;;5100963;28;20678;-60
2023/05/17 00:12:13;;;;;;;10.35;1.80;;;9.60;99.90;;;;;;5099705;28;20023;-60
2023/05/17 00:14:38;;;;;;;8.82;1.75;;;9.60;99.90;;;;;;5099900;28;20050;-60
2023/05/17 00:17:04;;;;;;;4.25;2.22;;;9.60;99.90;;;;;;5095351;28;20553;-61
2023/05/17 00:19:30;;;;;;;9.70;1.50;;;9.50;99.90;;;;;;5108921;28;20034;-61
2023/05/17 00:21:55;;;;;;;8.43;1.88;;;9.50;99.90;;;;;;5107609;28;20039;-61
2023/05/17 00:24:21;;;;;;;6.75;1.75;;;9.50;99.90;;;;;;5107873;28;20169;-61
2023/05/17 00:26:46;;;;;;;5.13;1.73;;;9.30;99.90;;;;;;5109562;28;20027;-61
2023/05/17 00:29:12;;;;;;;5.07;1.48;;;9.30;99.90;;;;;;5110792;28;20035;-60
2023/05/17 00:31:37;;;;;;;3.25;1.55;;;9.20;99.90;;;;;;5104752;28;20122;-61
2023/05/17 00:34:03;;;;;;;5.55;1.80;;;9.20;99.90;;;;;;5109856;28;20386;-59
2023/05/17 00:36:28;;;;;;;7.88;1.85;;;9.20;99.90;;;;;;5108676;28;20038;-59
2023/05/17 00:38:54;;;;;;;6.47;1.67;;;9.20;99.90;;;;;;5109955;28;20035;-61
2023/05/17 00:41:19;;;;;;;10.10;1.90;;;9.20;99.90;;;;;;5106628;28;20032;-60
2023/05/17 00:43:45;;;;;;;5.15;1.83;;;9.20;99.90;;;;;;5109461;28;20031;-56
2023/05/17 00:46:10;;;;;;;7.95;1.92;;;9.20;99.90;;;;;;5108287;28;20098;-58
2023/05/17 00:48:36;;;;;;;7.57;2.03;;;9.20;99.90;;;;;;5099766;28;20031;-56
2023/05/17 00:51:02;;;;;;;6.72;1.70;;;9.20;99.90;;;;;;5098288;28;20065;-60
2023/05/17 00:53:28;;;;;;;6.60;2.25;;;9.20;99.90;;;;;;5099122;28;20040;-60
2023/05/17 00:55:54;;;;;;;10.90;2.50;;;9.10;99.90;;;;;;5097678;28;20151;-60
2023/05/17 00:58:20;;;;;;;6.45;2.05;;;9.00;99.90;;;;;;5102804;28;20093;-60
2023/05/17 01:00:46;;;;;;;4.97;2.25;;;8.90;99.90;;;;;;5102442;28;20515;-60
2023/05/17 01:03:11;;;;;;;5.07;2.20;;;8.90;99.90;;;;;;5100874;28;20030;-59
2023/05/17 01:05:37;;;;;;;4.35;2.00;;;8.90;99.90;;;;;;5096137;28;20035;-60
2023/05/17 01:08:03;;;;;;;7.55;1.75;;;8.90;99.90;;;;;;5101078;28;20028;-61
2023/05/17 01:10:51;;;;;;;7.97;1.92;;;8.90;99.90;;;;;;5098397;28;20035;-61
2023/05/17 01:13:26;;;;;;;5.55;2.20;;;8.90;99.90;;;;;;5101623;28;20126;-59
2023/05/17 01:16:01;;;;;;;13.55;2.70;;;8.80;99.90;;;;;;5098781;28;20026;-61
2023/05/17 01:18:43;;;;;;;5.60;2.40;;;8.60;99.90;;;;;;5104540;28;20035;-60
2023/05/17 01:21:54;;;;;;;4.68;1.90;;;8.50;99.90;;;;;;5101455;28;20074;-62
2023/05/17 01:24:48;;;;;;;7.00;2.67;;;8.30;99.90;;;;;;5095985;28;20126;-61
2023/05/17 01:27:15;;;;;;;11.15;2.47;;;8.30;99.90;;;;;;5111715;28;20779;-59
2023/05/17 01:29:42;;;;;;;8.15;3.00;;;8.20;99.90;;;;;;5104949;28;20076;-61
2023/05/17 01:32:09;;;;;;;8.63;2.65;;;8.20;99.90;;;;;;5105550;28;20039;-57
2023/05/17 01:34:34;;;;;;;9.82;2.85;;;8.20;99.90;;;;;;5107921;28;20392;-60
2023/05/17 01:37:00;;;;;;;6.20;2.63;;;8.20;99.90;;;;;;5108086;28;20040;-60
2023/05/17 01:39:25;;;;;;;9.00;2.80;;;8.20;99.90;;;;;;5108295;28;20050;-59
2023/05/17 01:42:20;;;;;;;5.80;2.42;;;8.30;99.90;;;;;;5108022;28;20031;-56
2023/05/17 01:45:06;;;;;;;9.85;2.40;;;8.30;99.90;;;;;;5105458;28;20023;-60
2023/05/17 01:48:01;;;;;;;9.32;2.80;;;8.30;99.90;;;;;;5108354;28;20394;-59
2023/05/17 01:50:29;;;;;;;10.30;2.22;;;8.30;99.90;;;;;;5089844;28;20043;-60
2023/05/17 01:53:06;;;;;;;11.05;2.67;;;8.20;99.90;;;;;;5101545;28;20038;-61
2023/05/17 01:55:31;;;;;;;5.78;2.83;;;8.10;99.90;;;;;;5103148;28;20032;-58
2023/05/17 01:58:00;;;;;;;9.18;3.20;;;8.00;99.90;;;;;;5105377;28;20103;-60
2023/05/17 02:00:27;;;;;;;8.93;2.80;;;8.00;99.90;;;;;;5107497;28;20406;-61
2023/05/17 02:02:53;;;;;;;10.00;2.47;;;7.90;99.90;;;;;;5103688;28;20031;-60
2023/05/17 02:05:19;;;;;;;6.07;2.50;;;7.80;99.90;;;;;;5098207;28;20031;-58
2023/05/17 02:07:44;;;;;;;9.02;3.25;;;7.70;99.90;;;;;;5103455;28;20065;-58
2023/05/17 02:10:10;;;;;;;9.70;3.47;;;7.70;99.90;;;;;;5093484;28;20221;-60
2023/05/17 02:12:36;;;;;;;14.00;3.33;;;7.60;99.90;;;;;;5097277;28;20023;-60
2023/05/17 02:15:01;;;;;;;5.95;2.95;;;7.60;99.90;;;;;;5105215;28;20031;-59
2023/05/17 02:17:27;;;;;;;11.98;3.17;;;7.50;99.90;;;;;;5103213;28;20089;-57
2023/05/17 02:19:52;;;;;;;8.07;4.68;;;7.50;99.90;;;;;;5105695;28;20413;-59
2023/05/17 02:22:18;;;;;;;9.60;3.05;;;7.50;99.90;;;;;;5104509;27;20035;-60
2023/05/17 02:24:43;;;;;;;19.50;4.20;;;7.40;99.90;;;;;;5106469;28;20020;-55
2023/05/17 02:27:09;;;;;;;13.63;3.53;;;7.40;99.90;;;;;;5104448;28;20060;-56
2023/05/17 02:29:34;;;;;;;13.52;4.60;;;7.40;99.90;;;;;;5104797;28;20032;-55
2023/05/17 02:32:00;;;;;;;9.73;4.18;;;7.40;99.90;;;;;;5099749;28;20035;-56
2023/05/17 02:34:25;;;;;;;10.35;4.50;;;7.40;99.90;;;;;;5106847;28;20493;-60
2023/05/17 02:36:51;;;;;;;8.90;4.05;;;7.40;99.90;;;;;;5105560;28;20106;-60
2023/05/17 02:39:17;;;;;;;12.98;4.70;;;7.40;99.90;;;;;;5103922;28;20047;-60
2023/05/17 02:41:42;;;;;;;11.20;4.55;;;7.40;99.90;;;;;;5105073;28;20031;-61
2023/05/17 02:44:08;;;;;;;17.83;4.45;;;7.40;99.90;;;;;;5105227;28;20035;-59
2023/05/17 02:46:33;;;;;;;14.77;4.45;;;7.30;99.90;;;;;;5099740;28;20481;-57
2023/05/17 02:48:59;;;;;;;15.88;6.22;;;7.20;99.90;;;;;;5101256;28;20026;-57
2023/05/17 02:51:24;;;;;;;12.88;4.68;;;7.30;99.90;;;;;;5102031;28;20035;-60
2023/05/17 02:53:50;;;;;;;17.88;5.40;;;7.40;99.90;;;;;;5106863;28;20028;-61
2023/05/17 02:56:16;;;;;;;17.67;4.18;;;7.30;99.90;;;;;;5103699;28;20027;-56
2023/05/17 02:58:41;;;;;;;14.40;4.40;;;7.30;99.90;;;;;;5103260;28;20032;-60
2023/05/17 03:01:08;;;;;;;12.02;4.60;;;7.30;99.90;;;;;;5101353;28;20123;-59
2023/05/17 03:03:33;;;;;;;13.55;5.57;;;7.30;99.90;;;;;;5100356;28;20063;-60
2023/05/17 03:06:00;;;;;;;9.02;4.55;;;7.30;99.90;;;;;;5101072;28;20444;-58
2023/05/17 03:08:26;;;;;;;15.65;5.18;;;7.30;99.90;;;;;;5104214;28;20028;-59
2023/05/17 03:10:51;;;;;;;21.42;6.32;;;7.30;99.90;;;;;;5100193;28;20291;-54
2023/05/17 03:13:17;;;;;;;11.80;5.10;;;7.30;99.90;;;;;;5102481;28;20058;-60
2023/05/17 03:15:42;;;;;;;11.10;5.30;;;7.30;99.90;;;;;;5106417;28;20112;-56
2023/05/17 03:18:08;;;;;;;15.00;6.05;;;7.30;99.90;;;;;;5106647;28;20031;-60
2023/05/17 03:20:33;;;;;;;20.40;5.65;;;7.20;99.90;;;;;;5107226;28;20455;-60
2023/05/17 03:22:59;;;;;;;15.07;5.72;;;7.20;99.90;;;;;;5102421;28;20023;-60
2023/05/17 03:25:24;;;;;;;19.05;6.43;;;7.20;99.90;;;;;;5106437;28;20035;-59
2023/05/17 03:27:50;;;;;;;17.52;5.40;;;7.20;99.90;;;;;;5106246;28;20028;-60
2023/05/17 03:30:15;;;;;;;12.38;6.18;;;7.20;99.90;;;;;;5103560;28;20031;-59
2023/05/17 03:32:41;;;;;;;15.48;5.28;;;7.20;99.90;;;;;;5106351;28;20020;-58
2023/05/17 03:35:07;;;;;;;16.95;5.45;;;7.20;99.90;;;;;;5107723;28;20026;-60
2023/05/17 03:37:33;;;;;;;25.73;7.25;;;7.10;99.90;;;;;;5108988;28;20027;-60
2023/05/17 03:39:58;;;;;;;21.40;6.40;;;7.10;99.90;;;;;;5105148;28;20036;-60
2023/05/17 03:42:24;;;;;;;13.10;5.82;;;7.10;99.90;;;;;;5106013;28;20107;-61
2023/05/17 03:44:50;;;;;;;18.13;6.47;;;7.10;99.90;;;;;;5104195;28;20486;-58
2023/05/17 03:47:16;;;;;;;12.15;5.03;;;7.10;99.90;;;;;;5106235;28;20152;-60
2023/05/17 03:49:42;;;;;;;16.33;5.97;;;7.20;99.90;;;;;;5102864;28;20072;-59
2023/05/17 03:52:07;;;;;;;12.57;6.18;;;7.20;99.90;;;;;;5105522;28;20028;-58
2023/05/17 03:54:33;;;;;;;13.45;5.10;;;7.30;99.90;;;;;;5106236;28;20043;-60
2023/05/17 03:56:58;;;;;;;12.52;5.03;;;7.40;99.90;;;;;;5101059;28;20027;-60
2023/05/17 03:59:24;;;;;;;15.82;6.03;;;7.40;99.90;;;;;;5102319;28;20051;-61
2023/05/17 04:01:49;;;;;;;18.35;5.18;;;7.40;99.90;;;;;;5101142;28;20031;-60
2023/05/17 04:04:15;;;;;;;26.23;6.30;;;7.50;99.90;;;;;;5098750;28;20040;-57
2023/05/17 04:06:41;;;;;;;15.95;5.80;;;7.60;99.90;;;;;;5097570;28;20026;-60
2023/05/17 04:09:08;;;;;;;18.40;6.25;;;7.70;99.90;;;;;;5099846;28;20030;-61
2023/05/17 04:11:34;;;;;;;14.02;5.28;;;7.80;99.90;;;;;;5098794;28;20073;-58
2023/05/17 04:13:59;;;;;;;18.95;5.82;;;7.90;99.90;;;;;;5102379;28;20028;-60
2023/05/17 04:16:25;;;;;;;13.35;5.45;;;8.00;99.90;;;;;;5105116;27;20039;-61
2023/05/17 04:18:51;;;;;;;16.70;5.88;;;7.90;99.90;;;;;;5110103;28;20073;-61
2023/05/17 04:21:18;;;;;;;19.13;6.45;;;7.90;99.90;;;;;;5100084;28;20039;-60
2023/05/17 04:23:43;;;;;;;22.95;6.32;;;7.90;99.90;;;;;;5107639;28;20520;-61
2023/05/17 04:26:09;;;;;;;21.63;6.72;;;7.90;99.90;;;;;;5104329;28;20047;-59
2023/05/17 04:28:35;;;;;;;27.27;6.45;;;8.00;99.90;;;;;;5109684;28;20023;-61
2023/05/17 04:31:01;;;;;;;18.85;6.65;;;8.00;99.90;;;;;;5104921;28;20446;-60
2023/05/17 04:33:26;;;;;;;17.38;6.30;;;8.00;99.90;;;;;;5106829;28;20549;-61
2023/05/17 04:35:55;;;;;;;20.42;6.75;;;8.10;99.90;;;;;;5109140;28;20024;-59
2023/05/17 04:38:22;;;;;;;18.83;5.82;;;8.20;99.90;;;;;;5109734;28;20562;-61
2023/05/17 04:40:48;;;;;;;17.42;6.55;;;8.30;99.90;;;;;;5103779;28;20504;-60
2023/05/17 04:43:13;;;;;;;21.55;6.10;;;8.30;99.90;;;;;;5098667;28;20035;-61
2023/05/17 04:45:39;;;;;;;20.55;6.82;;;8.40;99.90;;;;;;5102912;28;20028;-61
2023/05/17 04:48:05;;;;;;;16.13;5.50;;;8.30;99.90;;;;;;5099905;28;20020;-60
2023/05/17 04:50:31;;;;;;;32.75;6.30;;;8.30;99.90;;;;;;5098495;28;20380;-61
2023/05/17 04:52:57;;;;;;;15.18;5.93;;;8.40;99.90;;;;;;5103110;28;20028;-61
2023/05/17 04:55:22;;;;;;;14.35;5.20;;;8.50;99.90;;;;;;5102956;28;20024;-61
2023/05/17 04:57:48;;;;;;;27.98;7.80;;;8.50;99.90;;;;;;5099571;28;20032;-61
2023/05/17 05:00:14;;;;;;;15.52;6.10;;;8.60;99.90;;;;;;5107947;28;20361;-61
2023/05/17 05:02:41;;;;;;;13.80;6.15;;;8.60;99.90;;;;;;5102313;28;20027;-59
2023/05/17 05:05:08;;;;;;;19.20;6.78;;;8.70;99.90;;;;;;5106020;27;20019;-58
2023/05/17 05:07:34;;;;;;;19.95;6.93;;;8.80;99.90;;;;;;5103169;28;20049;-57
2023/05/17 05:10:00;;;;;;;23.67;8.13;;;8.80;99.90;;;;;;5098932;28;21443;-60
2023/05/17 05:12:25;;;;;;;19.73;6.68;;;8.90;99.90;;;;;;5102775;28;20034;-59
2023/05/17 05:14:51;;;;;;;22.27;6.55;;;8.90;99.90;;;;;;5109049;28;20024;-61
2023/05/17 05:17:16;;;;;;;21.48;7.05;;;9.00;99.90;;;;;;5100919;28;20055;-58
2023/05/17 05:19:42;;;;;;;17.98;6.80;;;8.90;99.90;;;;;;5104014;28;20036;-61
2023/05/17 05:22:07;;;;;;;21.73;7.90;;;9.00;99.90;;;;;;5103645;28;20031;-62
2023/05/17 05:24:33;;;;;;;27.52;7.32;;;9.00;99.90;;;;;;5105697;28;20057;-59
2023/05/17 05:26:59;;;;;;;22.40;8.63;;;9.10;99.90;;;;;;5105942;28;20024;-60
2023/05/17 05:29:24;;;;;;;18.48;6.80;;;9.20;99.90;;;;;;5108918;28;20073;-61
2023/05/17 05:31:50;;;;;;;28.75;7.93;;;9.20;99.90;;;;;;5103351;28;20035;-60
2023/05/17 05:34:15;;;;;;;22.85;7.93;;;9.30;99.90;;;;;;5103953;28;20036;-60
2023/05/17 05:36:41;;;;;;;30.08;10.07;;;9.30;99.90;;;;;;5101728;28;20023;-61
2023/05/17 05:39:07;;;;;;;36.20;8.48;;;9.30;99.90;;;;;;5108713;28;20028;-63
2023/05/17 05:41:32;;;;;;;34.63;9.63;;;9.40;99.90;;;;;;5102209;28;20028;-60
2023/05/17 05:43:58;;;;;;;31.17;7.65;;;9.50;99.90;;;;;;5101331;28;20032;-53
2023/05/17 05:46:25;;;;;;;24.20;9.48;;;9.50;99.90;;;;;;5100202;28;20028;-61
2023/05/17 05:48:50;;;;;;;24.35;8.75;;;9.50;99.90;;;;;;5107840;28;20047;-61
2023/05/17 05:51:18;;;;;;;27.33;7.80;;;9.50;99.90;;;;;;5099598;28;20062;-60
2023/05/17 05:53:43;;;;;;;30.65;8.07;;;9.50;99.90;;;;;;5107360;28;20028;-60
2023/05/17 05:56:09;;;;;;;29.35;7.28;;;9.50;99.90;;;;;;5105306;28;20076;-60
2023/05/17 05:58:35;;;;;;;31.48;9.80;;;9.50;99.90;;;;;;5111437;28;20424;-60
2023/05/17 06:01:01;;;;;;;35.63;9.75;;;9.60;99.90;;;;;;5101987;28;20036;-56
2023/05/17 06:03:26;;;;;;;29.23;9.73;;;9.60;99.90;;;;;;5105825;28;20053;-58
2023/05/17 06:05:52;;;;;;;38.50;10.95;;;9.60;99.90;;;;;;5101863;28;20027;-61
2023/05/17 06:08:17;;;;;;;36.42;10.23;;;9.70;99.90;;;;;;5105865;28;20031;-60
2023/05/17 06:10:43;;;;;;;40.40;11.02;;;9.60;99.90;;;;;;5097151;28;20038;-61
2023/05/17 06:13:08;;;;;;;39.13;12.85;;;9.70;99.90;;;;;;5097915;28;20111;-61
2023/05/17 06:15:34;;;;;;;45.15;14.13;;;9.60;99.90;;;;;;5097876;28;20027;-60
2023/05/17 06:17:59;;;;;;;46.00;14.50;;;9.60;99.90;;;;;;5105417;28;20042;-58
2023/05/17 06:20:25;;;;;;;35.75;13.23;;;9.70;99.90;;;;;;5107511;28;20035;-59
2023/05/17 06:22:50;;;;;;;54.92;17.23;;;9.80;99.90;;;;;;5110701;27;20028;-61
2023/05/17 06:25:16;;;;;;;33.97;15.88;;;9.90;99.90;;;;;;5108171;28;20043;-60
2023/05/17 06:27:42;;;;;;;41.15;17.73;;;10.00;99.90;;;;;;5111097;28;20444;-59
2023/05/17 06:30:09;;;;;;;54.70;16.25;;;10.00;99.90;;;;;;5107692;28;20027;-61
2023/05/17 06:32:35;;;;;;;49.22;16.42;;;10.10;99.90;;;;;;5109200;28;20015;-59
2023/05/17 06:35:00;;;;;;;49.65;17.40;;;10.20;99.90;;;;;;5106824;28;20019;-60
2023/05/17 06:37:26;;;;;;;40.75;16.00;;;10.30;99.90;;;;;;5110904;28;20028;-61
2023/05/17 06:39:52;;;;;;;52.72;16.20;;;10.30;99.90;;;;;;5104553;28;20027;-61
2023/05/17 06:42:17;;;;;;;37.67;15.60;;;10.40;99.90;;;;;;5102047;28;20101;-59
2023/05/17 06:44:43;;;;;;;46.60;16.63;;;10.50;99.90;;;;;;5105860;28;20096;-61
2023/05/17 06:47:08;;;;;;;43.95;15.95;;;10.40;99.90;;;;;;5103913;28;20030;-61
2023/05/17 06:49:36;;;;;;;52.13;14.32;;;10.40;99.90;;;;;;5109631;28;20541;-61
2023/05/17 06:52:02;;;;;;;39.70;15.13;;;10.50;99.90;;;;;;5107816;28;20023;-58
2023/05/17 06:54:31;;;;;;;31.10;12.02;;;10.60;99.90;;;;;;5110108;28;20378;-61
2023/05/17 06:57:00;;;;;;;40.70;13.07;;;10.80;99.90;;;;;;5105933;28;20027;-59
2023/05/17 06:59:26;;;;;;;34.38;14.50;;;11.00;99.90;;;;;;5107586;28;20122;-58
2023/05/17 07:01:52;;;;;;;43.85;13.60;;;11.00;99.90;;;;;;5099272;28;20119;-56
2023/05/17 07:04:18;;;;;;;28.25;12.02;;;11.10;99.90;;;;;;5107773;28;20028;-58
2023/05/17 07:06:43;;;;;;;25.73;9.35;;;11.20;99.90;;;;;;5109967;28;20035;-60
2023/05/17 07:09:09;;;;;;;19.90;7.25;;;11.30;99.90;;;;;;5101559;28;20023;-59
2023/05/17 07:11:34;;;;;;;25.83;6.57;;;11.40;99.90;;;;;;5108604;28;20030;-60
2023/05/17 07:14:00;;;;;;;20.45;6.25;;;11.40;99.90;;;;;;5106151;28;20374;-56
2023/05/17 07:16:25;;;;;;;16.25;5.57;;;11.40;99.90;;;;;;5104466;28;20027;-59
2023/05/17 07:18:51;;;;;;;24.10;7.85;;;11.40;99.90;;;;;;5104251;28;20032;-60
2023/05/17 07:21:17;;;;;;;22.75;7.13;;;11.50;99.90;;;;;;5103207;28;20462;-58
2023/05/17 07:23:42;;;;;;;23.92;7.57;;;11.60;99.90;;;;;;5108360;28;20115;-60
2023/05/17 07:26:08;;;;;;;25.70;8.98;;;11.60;99.90;;;;;;5106257;28;20019;-59
2023/05/17 07:28:33;;;;;;;24.48;6.88;;;11.60;99.90;;;;;;5107306;28;20051;-59
2023/05/17 07:30:59;;;;;;;23.65;7.18;;;11.50;99.90;;;;;;5107457;28;20032;-57
2023/05/17 07:33:24;;;;;;;26.17;6.68;;;11.60;99.90;;;;;;5109316;28;20079;-51
2023/05/17 07:35:50;;;;;;;22.98;6.85;;;11.50;99.90;;;;;;5108586;28;20492;-59
2023/05/17 07:38:15;;;;;;;15.10;6.05;;;11.50;99.90;;;;;;5109014;28;20488;-58
2023/05/17 07:40:41;;;;;;;18.25;5.70;;;11.50;99.90;;;;;;5106971;28;20035;-58
2023/05/17 07:43:06;;;;;;;26.95;6.20;;;11.60;99.90;;;;;;5108200;28;20042;-58
2023/05/17 07:45:32;;;;;;;19.20;5.43;;;11.60;99.90;;;;;;5107096;28;20035;-59
2023/05/17 07:47:58;;;;;;;19.15;4.60;;;11.60;99.90;;;;;;5104621;28;20676;-58
2023/05/17 07:50:24;;;;;;;20.92;4.55;;;11.60;99.90;;;;;;5105170;28;20041;-57
2023/05/17 07:52:50;;;;;;;13.35;3.95;;;11.70;99.90;;;;;;5109206;28;20030;-57
2023/05/17 07:55:16;;;;;;;24.30;4.40;;;11.70;99.90;;;;;;5105955;28;20043;-57
2023/05/17 07:57:42;;;;;;;16.05;4.13;;;11.70;99.90;;;;;;5107743;28;20055;-56
2023/05/17 08:00:11;;;;;;;21.50;5.13;;;11.80;99.90;;;;;;5103254;28;20034;-54
2023/05/17 08:02:37;;;;;;;18.83;4.50;;;11.90;99.90;;;;;;5106749;28;20039;-57
2023/05/17 08:05:03;;;;;;;14.80;4.97;;;12.00;99.90;;;;;;5106168;28;20027;-58
2023/05/17 08:07:29;;;;;;;14.15;4.25;;;12.00;99.90;;;;;;5107696;28;20028;-61
2023/05/17 08:09:54;;;;;;;16.05;3.95;;;12.10;99.90;;;;;;5102275;28;20023;-59
2023/05/17 08:12:20;;;;;;;15.60;3.67;;;12.20;99.90;;;;;;5104864;28;20023;-56
2023/05/17 08:14:45;;;;;;;15.23;2.92;;;12.40;99.90;;;;;;5107069;28;20096;-56
2023/05/17 08:17:11;;;;;;;10.77;4.03;;;12.50;99.90;;;;;;5104932;28;20032;-52
2023/05/17 08:19:36;;;;;;;20.63;3.75;;;12.70;99.90;;;;;;5103064;28;20055;-57
2023/05/17 08:22:02;;;;;;;11.85;3.00;;;12.70;99.90;;;;;;5103509;28;20035;-58
2023/05/17 08:24:27;;;;;;;11.48;2.70;;;12.80;99.90;;;;;;5104424;28;20048;-59
2023/05/17 08:26:53;;;;;;;11.52;2.38;;;12.80;99.90;;;;;;5105019;28;20038;-55
2023/05/17 08:29:18;;;;;;;11.75;2.55;;;13.10;99.90;;;;;;5106883;28;20034;-57
2023/05/17 08:31:44;;;;;;;11.30;2.92;;;13.10;99.90;;;;;;5102766;28;20015;-57
2023/05/17 08:34:10;;;;;;;10.30;2.65;;;13.20;99.90;;;;;;5107196;28;20467;-57
2023/05/17 08:36:35;;;;;;;17.10;3.33;;;13.00;99.90;;;;;;5106558;28;20027;-56
2023/05/17 08:39:01;;;;;;;14.32;2.53;;;12.90;99.90;;;;;;5106039;27;20104;-56
2023/05/17 08:41:27;;;;;;;15.55;3.75;;;12.70;99.90;;;;;;5102794;28;20081;-58
2023/05/17 08:43:54;;;;;;;13.38;2.38;;;12.80;99.90;;;;;;5104546;28;20039;-51
2023/05/17 08:46:21;;;;;;;8.05;2.22;;;13.00;99.90;;;;;;5107241;28;20073;-58
2023/05/17 08:48:49;;;;;;;19.63;2.85;;;13.20;99.90;;;;;;5102294;28;20032;-56
2023/05/17 08:51:17;;;;;;;6.72;2.33;;;13.40;99.90;;;;;;5104681;28;20047;-59
2023/05/17 08:53:46;;;;;;;12.02;2.53;;;13.30;99.90;;;;;;5104555;28;20553;-60
2023/05/17 08:56:14;;;;;;;8.27;1.70;;;13.30;99.90;;;;;;5106446;28;20119;-57
2023/05/17 08:58:42;;;;;;;15.25;1.65;;;13.40;99.90;;;;;;5101408;28;20024;-54
2023/05/17 09:01:08;;;;;;;11.23;1.55;;;13.60;99.90;;;;;;5103578;28;20047;-58
2023/05/17 09:03:35;;;;;;;13.52;1.92;;;13.70;99.90;;;;;;5102994;28;20028;-60
2023/05/17 09:06:02;;;;;;;9.40;1.73;;;13.80;99.90;;;;;;5105660;28;20530;-61
2023/05/17 09:08:29;;;;;;;6.10;2.05;;;13.80;99.90;;;;;;5108002;28;20023;-59
2023/05/17 09:10:58;;;;;;;11.32;2.00;;;13.70;99.90;;;;;;5104134;28;20051;-60
2023/05/17 09:13:24;;;;;;;8.60;1.80;;;13.80;99.90;;;;;;5102280;28;20398;-56
2023/05/17 09:15:49;;;;;;;11.75;2.05;;;13.80;99.90;;;;;;5102586;28;20040;-57
2023/05/17 09:18:15;;;;;;;10.95;1.70;;;14.10;99.90;;;;;;5105453;28;20118;-57
2023/05/17 09:20:42;;;;;;;10.73;1.50;;;14.30;99.90;;;;;;5103217;28;20020;-58
2023/05/17 09:23:09;;;;;;;15.23;2.47;;;14.40;99.90;;;;;;5104407;28;20119;-59
2023/05/17 09:25:35;;;;;;;7.22;2.08;;;14.60;99.90;;;;;;5103929;28;20110;-57
2023/05/17 09:28:10;;;;;;;12.25;1.88;;;14.40;99.90;;;;;;5107143;28;20024;-58
2023/05/17 09:30:40;;;;;;;12.50;1.90;;;14.10;99.90;;;;;;5105062;28;20114;-60
2023/05/17 09:33:07;;;;;;;9.20;1.85;;;13.90;99.90;;;;;;5103463;28;20485;-55
2023/05/17 09:35:34;;;;;;;13.45;1.85;;;13.80;99.90;;;;;;5105605;28;20035;-58
2023/05/17 09:38:10;;;;;;;8.43;1.70;;;13.70;99.90;;;;;;5110206;28;20443;-60
2023/05/17 09:40:40;;;;;;;14.25;1.92;;;13.90;99.90;;;;;;5109017;28;20079;-60
2023/05/17 09:43:06;;;;;;;15.15;2.50;;;14.00;99.90;;;;;;5109505;28;20030;-59
2023/05/17 09:45:33;;;;;;;7.38;1.55;;;14.10;99.90;;;;;;5103207;28;20529;-57
2023/05/17 09:48:15;;;;;;;7.68;1.90;;;14.30;99.90;;;;;;5105732;28;20024;-59
2023/05/17 09:50:49;;;;;;;11.57;1.33;;;14.60;99.90;;;;;;5105571;28;20015;-60
2023/05/17 09:53:28;;;;;;;11.38;2.10;;;14.80;99.90;;;;;;5102371;28;20027;-58
2023/05/17 09:55:56;;;;;;;11.75;1.73;;;14.90;97.90;;;;;;5106390;28;20046;-57
2023/05/17 09:58:22;;;;;;;12.77;1.70;;;14.90;99.90;;;;;;5106224;28;20031;-58
2023/05/17 10:00:52;;;;;;;7.57;1.77;;;15.00;98.10;;;;;;5106843;28;20055;-59
2023/05/17 10:03:19;;;;;;;10.20;1.60;;;15.20;99.00;;;;;;5108144;28;20613;-59
2023/05/17 10:05:46;;;;;;;10.98;1.27;;;15.00;98.50;;;;;;5105441;28;20027;-59
2023/05/17 10:08:16;;;;;;;11.35;1.90;;;15.10;97.10;;;;;;5108552;28;20349;-58
2023/05/17 10:10:42;;;;;;;7.80;1.60;;;14.90;94.60;;;;;;5103256;28;20035;-59
2023/05/17 10:13:11;;;;;;;6.28;1.77;;;14.40;96.20;;;;;;5105772;28;20024;-59
2023/05/17 10:15:38;;;;;;;6.97;1.85;;;14.50;96.30;;;;;;5105490;28;20020;-56
2023/05/17 10:18:06;;;;;;;10.30;1.73;;;14.90;96.40;;;;;;5109136;28;20059;-58
2023/05/17 10:20:32;;;;;;;8.40;1.33;;;15.30;96.00;;;;;;5108633;28;20015;-57
2023/05/17 10:22:59;;;;;;;12.60;2.25;;;15.50;95.10;;;;;;5104731;28;20070;-58
2023/05/17 10:25:25;;;;;;;12.25;1.63;;;15.60;94.30;;;;;;5110133;28;20055;-59
2023/05/17 10:27:51;;;;;;;10.45;1.60;;;15.70;95.70;;;;;;5106633;28;20065;-60
2023/05/17 10:30:19;;;;;;;11.18;1.60;;;15.90;95.70;;;;;;5107421;28;20027;-60
2023/05/17 10:32:45;;;;;;;11.82;2.42;;;15.80;97.10;;;;;;5107951;28;20019;-59
2023/05/17 10:35:14;;;;;;;10.70;1.85;;;15.50;97.90;;;;;;5109511;28;20072;-59
2023/05/17 10:37:40;;;;;;;12.65;2.25;;;15.50;99.90;;;;;;5101960;28;20392;-60
2023/05/17 10:40:11;;;;;;;12.15;2.97;;;15.40;99.90;;;;;;5103394;28;20110;-58
2023/05/17 10:42:44;;;;;;;13.43;3.50;;;15.20;99.90;;;;;;5106332;28;20140;-55
2023/05/17 10:45:11;;;;;;;11.93;2.97;;;14.70;99.90;;;;;;5110578;28;20034;-58
2023/05/17 10:47:41;;;;;;;14.88;2.40;;;14.50;99.90;;;;;;5108422;28;20034;-58
2023/05/17 10:50:14;;;;;;;18.27;3.40;;;14.90;99.90;;;;;;5102537;28;20169;-58
2023/05/17 10:52:50;;;;;;;16.10;2.63;;;15.00;99.90;;;;;;5105794;28;20076;-59
2023/05/17 10:55:27;;;;;;;18.58;3.47;;;14.90;99.90;;;;;;5108240;28;20039;-57
2023/05/17 10:58:18;;;;;;;9.48;2.42;;;14.80;99.90;;;;;;5103561;28;20050;-57
2023/05/17 11:00:46;;;;;;;18.65;3.38;;;14.90;99.90;;;;;;5101725;28;20055;-56
2023/05/17 11:03:21;;;;;;;12.88;2.30;;;15.20;99.10;;;;;;5101149;28;20028;-58
2023/05/17 11:06:08;;;;;;;13.85;2.55;;;15.40;99.90;;;;;;5102460;28;20035;-58
2023/05/17 11:08:34;;;;;;;8.18;2.83;;;15.20;98.30;;;;;;5107519;28;20031;-56
2023/05/17 11:11:18;;;;;;;7.20;1.90;;;15.10;99.60;;;;;;5101285;28;20390;-58
2023/05/17 11:13:52;;;;;;;17.00;2.88;;;14.80;97.90;;;;;;5103105;28;20539;-54
2023/05/17 11:16:21;;;;;;;11.20;2.10;;;15.20;98.00;;;;;;5098598;28;20034;-52
2023/05/17 11:18:48;;;;;;;11.95;2.40;;;15.80;96.30;;;;;;5106265;28;20019;-60
2023/05/17 11:21:15;;;;;;;11.32;2.45;;;16.10;93.70;;;;;;5103274;28;20026;-58
2023/05/17 11:23:45;;;;;;;9.57;2.72;;;16.10;93.90;;;;;;5108714;28;20031;-55
2023/05/17 11:26:16;;;;;;;8.82;2.10;;;16.20;96.40;;;;;;5108468;28;20019;-58
2023/05/17 11:28:42;;;;;;;8.38;2.40;;;16.70;95.10;;;;;;5108848;28;20027;-58
2023/05/17 11:31:08;;;;;;;8.50;2.40;;;16.80;92.30;;;;;;5107221;28;20019;-58
2023/05/17 11:33:44;;;;;;;5.00;1.90;;;16.90;92.10;;;;;;5103737;28;20027;-58
2023/05/17 11:36:21;;;;;;;10.23;2.83;;;17.20;98.30;;;;;;5105084;28;20078;-59
2023/05/17 11:38:48;;;;;;;13.55;3.20;;;17.00;92.70;;;;;;5101187;28;20042;-58
2023/05/17 11:41:20;;;;;;;8.30;2.83;;;16.70;92.80;;;;;;5104433;28;20023;-58
2023/05/17 11:43:47;;;;;;;11.40;3.25;;;16.00;94.00;;;;;;5104711;28;20019;-58
2023/05/17 11:46:19;;;;;;;15.73;3.00;;;15.60;94.90;;;;;;5096276;28;20202;-59
2023/05/17 11:48:45;;;;;;;13.98;3.45;;;15.70;94.60;;;;;;5094501;28;20065;-61
2023/05/17 11:51:15;;;;;;;8.18;1.95;;;15.90;95.50;;;;;;5096883;28;20040;-59
2023/05/17 11:53:43;;;;;;;7.78;2.45;;;16.30;92.80;;;;;;5100011;28;20038;-59
2023/05/17 11:56:09;;;;;;;6.15;2.53;;;16.70;90.70;;;;;;5102971;28;20507;-56
2023/05/17 11:58:36;;;;;;;8.57;3.15;;;17.20;90.70;;;;;;5100748;27;20481;-60
2023/05/17 12:01:03;;;;;;;19.92;3.72;;;17.30;90.60;;;;;;5099660;28;20100;-56
2023/05/17 12:03:30;;;;;;;11.80;3.20;;;17.10;91.10;;;;;;5097020;28;20067;-59
2023/05/17 12:06:08;;;;;;;11.52;3.67;;;16.90;92.20;;;;;;5102257;27;20028;-56
2023/05/17 12:08:35;;;;;;;12.75;2.42;;;15.90;92.10;;;;;;5098382;28;20020;-58
2023/05/17 12:11:01;;;;;;;13.40;2.67;;;15.50;92.20;;;;;;5104965;28;20461;-56
2023/05/17 12:13:28;;;;;;;8.90;2.30;;;15.70;91.50;;;;;;5099077;28;20028;-59
2023/05/17 12:15:59;;;;;;;14.75;3.45;;;16.00;90.10;;;;;;5099752;28;20024;-55
2023/05/17 12:18:36;;;;;;;10.13;2.50;;;16.70;91.20;;;;;;5103065;28;20038;-56
2023/05/17 12:21:02;;;;;;;8.43;2.47;;;16.70;90.80;;;;;;5102889;28;20035;-56
2023/05/17 12:23:45;;;;;;;7.47;2.67;;;16.80;91.10;;;;;;5096949;28;20820;-53
2023/05/17 12:26:43;;;;;;;13.02;3.28;;;16.80;91.10;;;;;;5095832;28;20039;-54
2023/05/17 12:29:09;;;;;;;8.65;2.65;;;16.20;91.80;;;;;;5103047;27;20024;-61
2023/05/17 12:31:37;;;;;;;13.65;2.47;;;16.10;92.20;;;;;;5100561;28;20032;-59
2023/05/17 12:34:05;;;;;;;9.63;2.60;;;16.30;90.80;;;;;;5103225;27;20576;-61
2023/05/17 12:36:32;;;;;;;13.82;3.05;;;16.80;90.90;;;;;;5102021;28;20035;-59
2023/05/17 12:38:58;;;;;;;17.30;3.67;;;16.90;89.90;;;;;;5106447;28;20386;-58
2023/05/17 12:41:25;;;;;;;10.07;2.85;;;16.80;91.20;;;;;;5097202;28;20751;-61
2023/05/17 12:43:51;;;;;;;10.95;2.65;;;16.90;90.80;;;;;;5105472;28;20039;-60